createdAt,value
2023-04-18T00:00:14.324Z,0.30
2023-04-18T00:02:15.536Z,1.13
2023-04-18T00:04:14.567Z,0.75
2023-04-18T00:06:13.906Z,1.35
2023-04-18T00:08:11.930Z,0.90
2023-04-18T00:10:09.960Z,1.27
2023-04-18T00:12:09.417Z,1.40
2023-04-18T00:14:07.246Z,0.77
2023-04-18T00:16:05.363Z,0.57
2023-04-18T00:18:03.960Z,1.00
2023-04-18T00:20:04.779Z,0.22
2023-04-18T00:22:02.998Z,0.52
2023-04-18T00:24:01.017Z,1.48
2023-04-18T00:25:58.989Z,0.73
2023-04-18T00:27:58.211Z,0.40
2023-04-18T00:29:56.009Z,0.65
2023-04-18T00:31:54.065Z,0.32
2023-04-18T00:33:52.477Z,0.63
2023-04-18T00:35:50.432Z,0.50
2023-04-18T00:37:48.311Z,1.67
2023-04-18T00:39:47.315Z,1.65
2023-04-18T00:41:45.281Z,0.95
2023-04-18T00:43:44.492Z,1.15
2023-04-18T00:45:42.601Z,2.08
2023-04-18T00:47:41.753Z,1.15
2023-04-18T00:49:39.774Z,1.27
2023-04-18T00:51:38.193Z,1.55
2023-04-18T00:53:36.419Z,1.23
2023-04-18T00:55:35.344Z,1.17
2023-04-18T00:57:34.089Z,2.47
2023-04-18T00:59:34.544Z,2.03
2023-04-18T01:01:33.820Z,2.55
2023-04-18T01:03:33.008Z,2.10
2023-04-18T01:05:31.122Z,1.92
2023-04-18T01:07:30.784Z,1.67
2023-04-18T01:09:28.850Z,2.17
2023-04-18T01:11:26.928Z,1.05
2023-04-18T01:13:25.048Z,1.45
2023-04-18T01:15:24.285Z,1.23
2023-04-18T01:17:23.440Z,0.77
2023-04-18T01:19:23.224Z,1.70
2023-04-18T01:21:21.885Z,1.13
2023-04-18T01:23:20.115Z,0.90
2023-04-18T01:25:19.409Z,0.50
2023-04-18T01:27:18.198Z,1.17
2023-04-18T01:29:16.303Z,1.23
2023-04-18T01:31:14.213Z,1.20
2023-04-18T01:33:12.331Z,1.67
2023-04-18T01:35:10.563Z,1.95
2023-04-18T01:37:08.527Z,1.50
2023-04-18T01:39:07.298Z,1.42
2023-04-18T01:41:06.553Z,1.48
2023-04-18T01:43:04.704Z,0.80
2023-04-18T01:45:02.773Z,1.80
2023-04-18T01:47:00.574Z,1.60
2023-04-18T01:48:59.122Z,1.08
2023-04-18T01:50:57.085Z,1.75
2023-04-18T01:52:55.076Z,1.63
2023-04-18T01:54:53.033Z,2.00
2023-04-18T01:56:52.258Z,2.50
2023-04-18T01:58:50.185Z,1.27
2023-04-18T02:00:48.148Z,1.17
2023-04-18T02:02:46.374Z,1.30
2023-04-18T02:04:44.434Z,2.72
2023-04-18T02:06:42.355Z,1.40
2023-04-18T02:08:41.293Z,1.75
2023-04-18T02:10:39.269Z,1.40
2023-04-18T02:12:38.578Z,1.73
2023-04-18T02:14:37.402Z,1.83
2023-04-18T02:16:35.390Z,2.03
2023-04-18T02:18:34.753Z,1.85
2023-04-18T02:20:33.679Z,1.63
2023-04-18T02:22:32.839Z,1.70
2023-04-18T02:24:31.652Z,2.65
2023-04-18T02:26:29.486Z,2.65
2023-04-18T02:28:30.216Z,2.58
2023-04-18T02:30:28.138Z,2.38
2023-04-18T02:32:26.236Z,2.33
2023-04-18T02:34:24.104Z,2.55
2023-04-18T02:36:22.001Z,2.58
2023-04-18T02:38:19.989Z,1.63
2023-04-18T02:40:18.192Z,2.00
2023-04-18T02:42:16.199Z,3.05
2023-04-18T02:44:15.672Z,2.72
2023-04-18T02:46:14.362Z,2.92
2023-04-18T02:48:12.923Z,3.50
2023-04-18T02:50:11.390Z,2.45
2023-04-18T02:52:09.425Z,2.72
2023-04-18T02:54:07.448Z,3.67
2023-04-18T02:56:28.649Z,2.95
2023-04-18T02:58:45.298Z,3.58
2023-04-18T03:01:05.315Z,3.28
2023-04-18T03:03:21.733Z,2.58
2023-04-18T03:05:32.564Z,2.67
2023-04-18T03:07:33.459Z,4.60
2023-04-18T03:09:31.780Z,3.40
2023-04-18T03:11:35.605Z,3.73
2023-04-18T03:13:34.102Z,3.67
2023-04-18T03:15:32.516Z,4.00
2023-04-18T03:17:31.854Z,3.80
2023-04-18T03:19:28.947Z,3.60
2023-04-18T03:21:29.967Z,3.10
2023-04-18T03:23:28.508Z,5.15
2023-04-18T03:25:26.630Z,4.00
2023-04-18T03:27:24.785Z,2.53
2023-04-18T03:29:23.373Z,2.83
2023-04-18T03:31:22.507Z,3.00
2023-04-18T03:33:20.904Z,4.00
2023-04-18T03:35:21.067Z,3.38
2023-04-18T03:37:19.016Z,2.97
2023-04-18T03:39:21.735Z,2.35
2023-04-18T03:41:19.652Z,2.55
2023-04-18T03:43:17.576Z,3.13
2023-04-18T03:45:16.757Z,2.28
2023-04-18T03:47:16.961Z,2.22
2023-04-18T03:49:20.026Z,4.97
2023-04-18T03:51:18.603Z,3.47
2023-04-18T03:53:17.527Z,2.35
2023-04-18T03:55:15.672Z,2.70
2023-04-18T03:57:14.025Z,1.83
2023-04-18T03:59:12.713Z,2.47
2023-04-18T04:01:13.794Z,2.47
2023-04-18T04:03:11.800Z,2.22
2023-04-18T04:05:12.452Z,1.85
2023-04-18T04:07:10.865Z,2.42
2023-04-18T04:09:08.688Z,2.50
2023-04-18T04:11:06.721Z,3.75
2023-04-18T04:13:04.568Z,1.73
2023-04-18T04:15:05.594Z,2.38
2023-04-18T04:17:04.035Z,2.38
2023-04-18T04:19:02.872Z,2.47
2023-04-18T04:23:15.695Z,3.55
2023-04-18T04:25:18.427Z,3.40
2023-04-18T04:27:19.001Z,3.83
2023-04-18T04:29:19.236Z,2.17
2023-04-18T04:31:19.339Z,3.13
2023-04-18T04:33:18.008Z,2.83
2023-04-18T04:35:16.053Z,2.33
2023-04-18T04:37:15.342Z,3.17
2023-04-18T04:39:27.987Z,2.60
2023-04-18T04:41:40.474Z,3.17
2023-04-18T04:43:41.383Z,3.35
2023-04-18T04:45:41.563Z,2.75
2023-04-18T04:47:39.369Z,3.47
2023-04-18T04:49:37.270Z,2.67
2023-04-18T04:51:35.732Z,3.40
2023-04-18T04:53:33.612Z,2.78
2023-04-18T04:55:34.464Z,2.63
2023-04-18T04:57:34.210Z,3.30
2023-04-18T04:59:35.509Z,2.42
2023-04-18T05:01:33.555Z,2.47
2023-04-18T05:03:31.988Z,3.63
2023-04-18T05:05:30.242Z,3.35
2023-04-18T05:07:28.262Z,3.65
2023-04-18T05:09:26.248Z,3.60
2023-04-18T05:11:25.760Z,3.50
2023-04-18T05:13:23.709Z,3.30
2023-04-18T05:15:21.885Z,3.35
2023-04-18T05:17:19.846Z,2.65
2023-04-18T05:19:17.663Z,2.97
2023-04-18T05:21:15.673Z,3.13
2023-04-18T05:23:13.657Z,3.65
2023-04-18T05:25:12.334Z,5.47
2023-04-18T05:27:11.786Z,3.38
2023-04-18T05:29:09.822Z,3.20
2023-04-18T05:31:07.895Z,3.25
2023-04-18T05:33:05.838Z,2.88
2023-04-18T05:35:03.835Z,2.60
2023-04-18T05:37:01.908Z,3.80
2023-04-18T05:38:59.849Z,3.08
2023-04-18T05:41:00.312Z,3.55
2023-04-18T05:42:59.576Z,2.72
2023-04-18T05:44:57.453Z,3.35
2023-04-18T05:46:55.351Z,3.17
2023-04-18T05:48:53.323Z,3.42
2023-04-18T05:50:51.195Z,2.67
2023-04-18T05:52:49.357Z,3.42
2023-04-18T05:54:47.372Z,3.03
2023-04-18T05:56:46.094Z,3.30
2023-04-18T05:58:46.907Z,2.17
2023-04-18T06:00:51.175Z,3.10
2023-04-18T06:02:49.786Z,3.38
2023-04-18T06:04:48.903Z,3.30
2023-04-18T06:06:47.033Z,3.08
2023-04-18T06:08:44.991Z,1.67
2023-04-18T06:10:42.801Z,1.90
2023-04-18T06:12:40.824Z,2.83
2023-04-18T06:14:40.080Z,2.03
2023-04-18T06:16:38.331Z,2.28
2023-04-18T06:18:36.350Z,2.35
2023-04-18T06:20:34.229Z,1.42
2023-04-18T06:22:32.249Z,2.00
2023-04-18T06:24:31.275Z,3.03
2023-04-18T06:26:30.205Z,3.15
2023-04-18T06:28:28.226Z,1.27
2023-04-18T06:30:27.616Z,1.98
2023-04-18T06:32:25.795Z,1.45
2023-04-18T06:34:23.873Z,2.38
2023-04-18T06:36:22.456Z,2.47
2023-04-18T06:38:20.619Z,2.50
2023-04-18T06:40:18.558Z,2.67
2023-04-18T06:42:16.523Z,3.00
2023-04-18T06:44:19.009Z,1.50
2023-04-18T06:46:18.322Z,2.00
2023-04-18T06:48:16.328Z,3.25
2023-04-18T06:50:14.678Z,1.85
2023-04-18T06:52:12.673Z,2.80
2023-04-18T06:54:10.611Z,2.00
2023-04-18T06:56:08.896Z,2.13
2023-04-18T06:58:07.554Z,1.90
2023-04-18T07:00:06.195Z,1.80
2023-04-18T07:02:05.550Z,1.58
2023-04-18T07:04:03.942Z,0.73
2023-04-18T07:06:02.900Z,2.00
2023-04-18T07:08:01.028Z,1.40
2023-04-18T07:09:58.927Z,1.65
2023-04-18T07:11:57.015Z,0.88
2023-04-18T07:13:55.285Z,2.13
2023-04-18T07:15:53.432Z,1.63
2023-04-18T07:17:53.103Z,1.50
2023-04-18T07:19:51.306Z,2.17
2023-04-18T07:21:49.267Z,0.90
2023-04-18T07:23:47.592Z,0.67
2023-04-18T07:25:45.724Z,1.43
2023-04-18T07:27:43.621Z,0.98
2023-04-18T07:29:41.871Z,1.00
2023-04-18T07:31:40.047Z,0.93
2023-04-18T07:33:40.026Z,1.52
2023-04-18T07:35:38.429Z,0.85
2023-04-18T07:37:38.782Z,1.60
2023-04-18T07:39:37.042Z,0.63
2023-04-18T07:41:35.453Z,0.63
2023-04-18T07:43:33.517Z,0.55
2023-04-18T07:45:33.493Z,1.10
2023-04-18T07:47:32.619Z,0.98
2023-04-18T07:49:33.377Z,0.77
2023-04-18T07:51:32.392Z,0.80
2023-04-18T07:53:30.571Z,1.02
2023-04-18T07:55:28.709Z,0.95
2023-04-18T07:57:26.732Z,1.13
2023-04-18T07:59:24.946Z,1.08
2023-04-18T08:01:24.700Z,1.30
2023-04-18T08:03:23.080Z,1.05
2023-04-18T08:05:22.613Z,1.40
2023-04-18T08:07:20.440Z,4.32
2023-04-18T08:09:20.713Z,1.67
2023-04-18T08:11:18.650Z,1.37
2023-04-18T08:13:18.016Z,0.57
2023-04-18T08:15:15.961Z,0.55
2023-04-18T08:17:14.015Z,0.53
2023-04-18T08:19:12.390Z,0.40
2023-04-18T08:21:14.400Z,0.47
2023-04-18T08:23:13.388Z,0.40
2023-04-18T08:25:11.675Z,0.40
2023-04-18T08:27:09.601Z,0.57
2023-04-18T08:29:07.633Z,0.50
2023-04-18T08:31:05.898Z,0.43
2023-04-18T08:33:03.750Z,0.20
2023-04-18T08:35:01.850Z,0.43
2023-04-18T08:37:01.232Z,0.50
2023-04-18T08:38:59.228Z,0.47
2023-04-18T08:40:57.047Z,0.50
2023-04-18T08:42:56.607Z,0.33
2023-04-18T08:44:54.705Z,0.30
2023-04-18T08:46:52.952Z,0.20
2023-04-18T08:48:51.463Z,0.70
2023-04-18T08:50:49.329Z,0.77
2023-04-18T08:52:49.305Z,2.13
2023-04-18T08:54:49.202Z,0.47
2023-04-18T08:56:50.394Z,0.30
2023-04-18T08:58:49.143Z,0.53
2023-04-18T09:00:50.732Z,0.10
2023-04-18T09:02:49.614Z,0.20
2023-04-18T09:04:52.708Z,0.10
2023-04-18T09:06:53.017Z,0.13
2023-04-18T09:08:58.941Z,0.20
2023-04-18T09:10:58.677Z,0.20
2023-04-18T09:12:58.170Z,0.60
2023-04-18T09:14:57.926Z,0.47
2023-04-18T09:16:56.393Z,0.10
2023-04-18T09:19:13.718Z,0.40
2023-04-18T09:21:19.823Z,0.73
2023-04-18T09:23:23.689Z,0.67
2023-04-18T09:25:27.657Z,0.55
2023-04-18T09:27:25.841Z,0.75
2023-04-18T09:29:24.180Z,0.00
2023-04-18T09:31:22.727Z,0.10
2023-04-18T09:33:28.259Z,0.30
2023-04-18T09:35:26.550Z,0.20
2023-04-18T09:37:24.676Z,0.08
2023-04-18T09:39:28.023Z,0.00
2023-04-18T09:41:27.770Z,0.00
2023-04-18T09:43:25.665Z,0.00
2023-04-18T09:45:23.957Z,0.00
2023-04-18T09:47:21.886Z,0.00
2023-04-18T09:49:20.061Z,0.00
2023-04-18T09:51:18.216Z,0.00
2023-04-18T09:53:20.785Z,0.00
2023-04-18T09:55:19.766Z,0.00
2023-04-18T09:57:19.233Z,0.00
2023-04-18T09:59:20.531Z,0.00
2023-04-18T10:01:19.239Z,0.00
2023-04-18T10:03:18.974Z,0.17
2023-04-18T10:05:19.564Z,0.00
2023-04-18T10:07:19.027Z,0.77
2023-04-18T10:09:17.037Z,0.00
2023-04-18T10:11:15.689Z,0.10
2023-04-18T10:13:15.042Z,0.10
2023-04-18T10:15:13.014Z,0.00
2023-04-18T10:17:11.886Z,0.00
2023-04-18T10:19:25.900Z,0.00
2023-04-18T10:21:23.918Z,0.13
2023-04-18T10:23:38.373Z,0.00
2023-04-18T10:27:52.744Z,0.00
2023-04-18T10:29:53.033Z,0.10
2023-04-18T10:31:51.283Z,0.10
2023-04-18T10:34:03.281Z,0.10
2023-04-18T10:36:14.929Z,0.00
2023-04-18T10:38:17.824Z,0.10
2023-04-18T10:40:15.714Z,0.20
2023-04-18T10:42:13.558Z,0.47
2023-04-18T10:44:13.314Z,0.07
2023-04-18T10:46:27.899Z,0.20
2023-04-18T10:48:31.306Z,0.00
2023-04-18T10:50:29.154Z,0.00
2023-04-18T10:52:27.767Z,0.00
2023-04-18T10:54:30.994Z,0.00
2023-04-18T10:56:29.226Z,0.00
2023-04-18T10:58:27.147Z,0.00
2023-04-18T11:00:25.181Z,0.00
2023-04-18T11:02:28.891Z,0.87
2023-04-18T11:04:29.306Z,0.00
2023-04-18T11:06:28.622Z,0.00
2023-04-18T11:08:26.855Z,0.00
2023-04-18T11:10:26.747Z,0.00
2023-04-18T11:12:24.901Z,0.10
2023-04-18T11:14:23.643Z,0.10
2023-04-18T11:16:28.223Z,0.00
2023-04-18T11:18:27.483Z,0.10
2023-04-18T11:20:26.100Z,0.00
2023-04-18T11:22:24.038Z,0.10
2023-04-18T11:24:23.152Z,0.10
2023-04-18T11:26:21.887Z,0.10
2023-04-18T11:28:20.839Z,0.00
2023-04-18T11:30:19.019Z,0.00
2023-04-18T11:32:16.946Z,0.00
2023-04-18T11:34:16.319Z,0.00
2023-04-18T11:36:14.707Z,0.40
2023-04-18T11:38:13.277Z,0.00
2023-04-18T11:40:11.709Z,0.00
2023-04-18T11:42:10.052Z,0.10
2023-04-18T11:44:08.134Z,0.00
2023-04-18T11:46:06.259Z,0.00
2023-04-18T11:48:04.175Z,0.00
2023-04-18T11:50:04.218Z,0.00
2023-04-18T11:52:02.418Z,0.00
2023-04-18T11:54:00.446Z,0.00
2023-04-18T11:55:58.314Z,0.00
2023-04-18T11:57:56.617Z,0.00
2023-04-18T11:59:56.239Z,0.00
2023-04-18T12:02:08.835Z,0.10
2023-04-18T12:04:13.134Z,0.00
2023-04-18T12:06:12.789Z,0.30
2023-04-18T12:08:11.983Z,0.40
2023-04-18T12:10:10.612Z,0.10
2023-04-18T12:12:08.675Z,0.00
2023-04-18T12:14:08.031Z,0.00
2023-04-18T12:16:06.333Z,0.00
2023-04-18T12:18:06.154Z,0.00
2023-04-18T12:20:05.461Z,0.00
2023-04-18T12:22:06.651Z,0.10
2023-04-18T12:24:14.198Z,0.10
2023-04-18T12:26:13.685Z,0.30
2023-04-18T12:28:15.814Z,0.00
2023-04-18T12:30:14.688Z,0.00
2023-04-18T12:32:12.580Z,0.00
2023-04-18T12:34:10.640Z,0.00
2023-04-18T12:36:08.968Z,0.00
2023-04-18T12:38:08.526Z,0.00
2023-04-18T12:40:07.882Z,0.00
2023-04-18T12:42:06.246Z,0.00
2023-04-18T12:44:04.366Z,0.00
2023-04-18T12:46:02.755Z,0.28
2023-04-18T12:48:00.855Z,0.00
2023-04-18T12:49:59.246Z,0.00
2023-04-18T12:51:57.203Z,0.10
2023-04-18T12:53:56.908Z,0.00
2023-04-18T12:55:56.136Z,0.00
2023-04-18T12:57:54.916Z,0.00
2023-04-18T12:59:53.387Z,0.08
2023-04-18T13:01:51.482Z,0.00
2023-04-18T13:03:56.737Z,0.52
2023-04-18T13:06:02.389Z,0.00
2023-04-18T13:10:06.157Z,0.10
2023-04-18T13:12:04.733Z,0.00
2023-04-18T13:14:02.954Z,0.00
2023-04-18T13:16:01.388Z,0.00
2023-04-18T13:18:06.708Z,0.98
2023-04-18T13:20:06.780Z,0.00
2023-04-18T13:22:04.975Z,0.00
2023-04-18T13:24:03.185Z,0.00
2023-04-18T13:26:02.623Z,0.30
2023-04-18T13:28:02.281Z,0.00
2023-04-18T13:30:00.682Z,0.00
2023-04-18T13:31:58.703Z,0.00
2023-04-18T13:33:57.023Z,0.00
2023-04-18T13:35:55.498Z,0.00
2023-04-18T13:37:53.500Z,0.00
2023-04-18T13:39:52.119Z,0.00
2023-04-18T13:41:51.778Z,0.00
2023-04-18T13:43:49.860Z,0.00
2023-04-18T13:45:48.199Z,0.00
2023-04-18T13:47:46.507Z,0.00
2023-04-18T13:49:44.883Z,0.00
2023-04-18T13:51:43.073Z,0.00
2023-04-18T13:53:41.465Z,0.00
2023-04-18T13:55:39.710Z,0.00
2023-04-18T13:57:42.447Z,0.00
2023-04-18T13:59:41.486Z,0.00
2023-04-18T14:01:39.657Z,0.00
2023-04-18T14:03:40.667Z,0.00
2023-04-18T14:05:42.493Z,0.00
2023-04-18T14:07:40.616Z,0.00
2023-04-18T14:09:38.591Z,0.10
2023-04-18T14:11:36.563Z,0.00
2023-04-18T14:13:35.950Z,0.00
2023-04-18T14:15:34.001Z,0.00
2023-04-18T14:17:32.142Z,0.15
2023-04-18T14:19:30.515Z,0.08
2023-04-18T14:21:28.744Z,0.00
2023-04-18T14:23:26.950Z,0.00
2023-04-18T14:25:24.943Z,1.48
2023-04-18T14:27:22.879Z,8.90
2023-04-18T14:29:22.319Z,0.60
2023-04-18T14:31:20.552Z,16.02
2023-04-18T14:33:18.875Z,0.90
2023-04-18T14:35:17.090Z,0.35
2023-04-18T14:37:15.782Z,0.00
2023-04-18T14:39:15.350Z,0.00
2023-04-18T14:41:13.431Z,0.10
2023-04-18T14:43:11.359Z,0.00
2023-04-18T14:45:11.971Z,0.00
2023-04-18T14:47:09.991Z,0.00
2023-04-18T14:49:07.920Z,0.00
2023-04-18T14:51:05.889Z,0.00
2023-04-18T14:53:04.053Z,1.23
2023-04-18T14:55:02.209Z,0.17
2023-04-18T14:57:00.098Z,0.15
2023-04-18T14:58:57.965Z,2.03
2023-04-18T15:00:57.303Z,0.40
2023-04-18T15:02:55.329Z,0.00
2023-04-18T15:04:53.684Z,0.00
2023-04-18T15:06:51.804Z,0.00
2023-04-18T15:08:49.578Z,0.00
2023-04-18T15:10:47.800Z,0.00
2023-04-18T15:12:46.816Z,0.00
2023-04-18T15:14:44.677Z,0.00
2023-04-18T15:16:44.124Z,0.00
2023-04-18T15:18:43.547Z,0.00
2023-04-18T15:20:41.514Z,0.00
2023-04-18T15:22:39.343Z,0.00
2023-04-18T15:24:37.625Z,0.45
2023-04-18T15:26:35.468Z,0.10
2023-04-18T15:28:33.486Z,0.05
2023-04-18T15:30:31.513Z,0.00
2023-04-18T15:32:31.059Z,0.05
2023-04-18T15:34:28.931Z,0.00
2023-04-18T15:36:27.924Z,0.00
2023-04-18T15:38:25.816Z,0.00
2023-04-18T15:40:23.809Z,0.00
2023-04-18T15:42:21.841Z,0.00
2023-04-18T15:44:19.905Z,0.10
2023-04-18T15:46:18.020Z,0.00
2023-04-18T15:48:17.452Z,0.00
2023-04-18T15:50:16.425Z,0.00
2023-04-18T15:52:15.938Z,0.00
2023-04-18T15:54:13.909Z,0.00
2023-04-18T15:56:12.172Z,0.00
2023-04-18T15:58:10.089Z,0.20
2023-04-18T16:00:13.956Z,0.10
2023-04-18T16:02:12.022Z,0.15
2023-04-18T16:04:11.465Z,0.25
2023-04-18T16:06:10.240Z,0.20
2023-04-18T16:08:08.992Z,0.00
2023-04-18T16:10:08.697Z,0.10
2023-04-18T16:12:08.237Z,0.00
2023-04-18T16:14:06.217Z,0.00
2023-04-18T16:16:05.734Z,0.00
2023-04-18T16:18:03.791Z,0.00
2023-04-18T16:20:03.588Z,0.00
2023-04-18T16:22:01.432Z,0.00
2023-04-18T16:23:59.379Z,0.10
2023-04-18T16:25:57.542Z,0.03
2023-04-18T16:27:55.534Z,0.10
2023-04-18T16:29:53.910Z,0.50
2023-04-18T16:31:52.643Z,0.05
2023-04-18T16:33:52.532Z,0.10
2023-04-18T16:35:52.110Z,0.00
2023-04-18T16:37:50.360Z,0.32
2023-04-18T16:39:48.893Z,0.00
2023-04-18T16:41:46.991Z,0.00
2023-04-18T16:43:44.941Z,0.10
2023-04-18T16:45:42.999Z,0.20
2023-04-18T16:47:40.983Z,0.00
2023-04-18T16:49:39.054Z,0.00
2023-04-18T16:51:38.694Z,0.20
2023-04-18T16:53:36.686Z,0.00
2023-04-18T16:55:34.543Z,0.10
2023-04-18T16:57:32.665Z,0.10
2023-04-18T16:59:30.565Z,0.00
2023-04-18T17:01:28.557Z,0.00
2023-04-18T17:03:26.821Z,0.60
2023-04-18T17:05:25.938Z,0.10
2023-04-18T17:07:25.338Z,0.25
2023-04-18T17:09:23.317Z,0.00
2023-04-18T17:11:21.363Z,0.00
2023-04-18T17:13:19.469Z,0.00
2023-04-18T17:15:18.898Z,0.00
2023-04-18T17:17:16.879Z,0.00
2023-04-18T17:19:15.264Z,0.17
2023-04-18T17:21:13.387Z,0.00
2023-04-18T17:23:12.692Z,0.00
2023-04-18T17:25:10.931Z,0.10
2023-04-18T17:27:08.903Z,0.45
2023-04-18T17:29:06.823Z,0.00
2023-04-18T17:31:04.839Z,0.13
2023-04-18T17:33:02.730Z,0.00
2023-04-18T17:35:04.276Z,0.00
2023-04-18T17:37:03.198Z,0.00
2023-04-18T17:39:06.263Z,0.08
2023-04-18T17:41:05.852Z,0.00
2023-04-18T17:43:03.781Z,0.00
2023-04-18T17:45:02.521Z,0.10
2023-04-18T17:47:02.209Z,0.20
2023-04-18T17:49:00.567Z,0.00
2023-04-18T17:50:59.370Z,0.00
2023-04-18T17:52:57.578Z,0.00
2023-04-18T17:54:57.177Z,0.10
2023-04-18T17:56:55.434Z,0.10
2023-04-18T17:58:55.243Z,0.10
2023-04-18T18:00:54.549Z,0.20
2023-04-18T18:02:52.734Z,0.10
2023-04-18T18:04:51.474Z,0.00
2023-04-18T18:06:54.614Z,0.00
2023-04-18T18:08:52.630Z,0.10
2023-04-18T18:10:51.829Z,0.00
2023-04-18T18:12:49.808Z,0.00
2023-04-18T18:14:47.670Z,0.22
2023-04-18T18:16:45.604Z,0.10
2023-04-18T18:18:43.709Z,0.10
2023-04-18T18:20:42.104Z,0.00
2023-04-18T18:22:40.139Z,0.40
2023-04-18T18:24:38.125Z,0.10
2023-04-18T18:26:37.506Z,0.22
2023-04-18T18:28:35.393Z,0.15
2023-04-18T18:30:33.251Z,0.10
2023-04-18T18:32:31.361Z,0.10
2023-04-18T18:34:32.114Z,0.00
2023-04-18T18:36:30.321Z,0.00
2023-04-18T18:38:28.437Z,0.10
2023-04-18T18:40:26.494Z,0.10
2023-04-18T18:42:26.036Z,0.00
2023-04-18T18:44:24.034Z,0.10
2023-04-18T18:46:21.922Z,0.08
2023-04-18T18:48:20.063Z,0.10
2023-04-18T18:50:18.045Z,0.47
2023-04-18T18:52:16.134Z,0.17
2023-04-18T18:54:14.478Z,0.10
2023-04-18T18:56:12.287Z,0.63
2023-04-18T18:58:11.738Z,1.25
2023-04-18T19:00:11.879Z,0.03
2023-04-18T19:02:09.838Z,0.50
2023-04-18T19:04:08.034Z,0.20
2023-04-18T19:06:07.393Z,0.22
2023-04-18T19:08:06.693Z,0.00
2023-04-18T19:10:04.775Z,0.20
2023-04-18T19:12:02.707Z,0.00
2023-04-18T19:14:02.024Z,0.20
2023-04-18T19:15:59.950Z,0.10
2023-04-18T19:17:58.037Z,0.00
2023-04-18T19:19:58.026Z,0.00
2023-04-18T19:21:55.984Z,0.00
2023-04-18T19:23:57.293Z,0.00
2023-04-18T19:25:55.438Z,0.00
2023-04-18T19:27:53.408Z,0.10
2023-04-18T19:29:52.888Z,0.43
2023-04-18T19:31:51.528Z,0.50
2023-04-18T19:33:49.711Z,0.30
2023-04-18T19:35:47.744Z,0.10
2023-04-18T19:37:45.722Z,0.20
2023-04-18T19:39:43.676Z,0.38
2023-04-18T19:41:42.674Z,0.05
2023-04-18T19:43:42.632Z,0.00
2023-04-18T19:45:41.889Z,0.17
2023-04-18T19:47:39.858Z,0.20
2023-04-18T19:49:37.954Z,0.00
2023-04-18T19:51:35.890Z,0.00
2023-04-18T19:53:33.935Z,0.20
2023-04-18T19:55:32.166Z,0.00
2023-04-18T19:57:30.045Z,0.00
2023-04-18T19:59:28.511Z,0.08
2023-04-18T20:01:27.726Z,0.10
2023-04-18T20:03:25.943Z,0.00
2023-04-18T20:05:24.260Z,0.20
2023-04-18T20:07:23.616Z,0.00
2023-04-18T20:09:22.740Z,0.10
2023-04-18T20:11:20.881Z,0.00
2023-04-18T20:13:18.833Z,0.00
2023-04-18T20:15:16.931Z,0.00
2023-04-18T20:17:16.260Z,0.10
2023-04-18T20:19:14.868Z,0.10
2023-04-18T20:21:13.115Z,0.10
2023-04-18T20:23:11.532Z,0.00
2023-04-18T20:25:09.632Z,0.17
2023-04-18T20:27:07.706Z,0.17
2023-04-18T20:29:05.734Z,0.00
2023-04-18T20:31:04.095Z,0.10
2023-04-18T20:33:03.689Z,0.00
2023-04-18T20:35:02.885Z,0.00
2023-04-18T20:37:00.822Z,0.10
2023-04-18T20:38:58.630Z,0.00
2023-04-18T20:40:58.157Z,0.10
2023-04-18T20:42:57.761Z,0.00
2023-04-18T20:44:55.641Z,0.00
2023-04-18T20:46:54.338Z,0.10
2023-04-18T20:48:53.705Z,0.00
2023-04-18T20:50:52.086Z,0.03
2023-04-18T20:52:50.097Z,0.10
2023-04-18T20:54:47.984Z,0.10
2023-04-18T20:56:45.918Z,0.05
2023-04-18T20:58:43.888Z,0.00
2023-04-18T21:00:41.774Z,0.08
2023-04-18T21:02:39.627Z,0.03
2023-04-18T21:04:39.190Z,0.00
2023-04-18T21:06:37.157Z,0.10
2023-04-18T21:08:37.856Z,0.10
2023-04-18T21:10:35.774Z,0.00
2023-04-18T21:12:33.638Z,0.17
2023-04-18T21:14:31.632Z,0.00
2023-04-18T21:16:29.637Z,0.00
2023-04-18T21:18:27.420Z,0.10
2023-04-18T21:20:26.895Z,0.00
2023-04-18T21:22:24.808Z,0.00
2023-04-18T21:24:22.862Z,0.00
2023-04-18T21:26:21.068Z,0.10
2023-04-18T21:28:19.830Z,0.00
2023-04-18T21:30:17.700Z,0.00
2023-04-18T21:32:15.794Z,0.00
2023-04-18T21:34:13.984Z,0.00
2023-04-18T21:36:13.538Z,0.00
2023-04-18T21:38:14.416Z,0.00
2023-04-18T21:40:12.837Z,0.20
2023-04-18T21:42:11.370Z,0.00
2023-04-18T21:44:09.246Z,0.17
2023-04-18T21:46:07.307Z,0.13
2023-04-18T21:48:05.460Z,0.20
2023-04-18T21:50:04.117Z,0.00
2023-04-18T21:52:03.533Z,0.00
2023-04-18T21:54:01.680Z,0.00
2023-04-18T21:55:59.659Z,0.00
2023-04-18T21:57:57.602Z,0.00
2023-04-18T21:59:55.766Z,0.00
2023-04-18T22:01:53.703Z,0.00
2023-04-18T22:03:52.221Z,0.00
2023-04-18T22:05:52.324Z,0.00
2023-04-18T22:07:57.997Z,0.20
2023-04-18T22:09:58.647Z,0.00
2023-04-18T22:11:57.122Z,0.00
2023-04-18T22:13:55.255Z,0.00
2023-04-18T22:15:53.376Z,0.03
2023-04-18T22:17:51.310Z,0.03
2023-04-18T22:19:50.527Z,0.05
2023-04-18T22:21:48.541Z,0.10
2023-04-18T22:23:48.508Z,0.00
2023-04-18T22:25:46.621Z,0.00
2023-04-18T22:27:45.213Z,0.00
2023-04-18T22:29:43.165Z,0.10
2023-04-18T22:31:41.101Z,0.00
2023-04-18T22:33:38.991Z,0.00
2023-04-18T22:35:36.860Z,0.05
2023-04-18T22:37:34.962Z,0.30
2023-04-18T22:39:34.308Z,0.00
2023-04-18T22:41:33.761Z,0.00
2023-04-18T22:43:31.675Z,0.10
2023-04-18T22:45:29.814Z,0.00
2023-04-18T22:47:28.016Z,0.13
2023-04-18T22:49:26.279Z,0.00
2023-04-18T22:51:24.841Z,0.00
2023-04-18T22:53:22.877Z,0.00
2023-04-18T22:55:22.257Z,0.00
2023-04-18T22:57:20.317Z,0.00
2023-04-18T22:59:18.521Z,0.00
2023-04-18T23:01:16.464Z,0.17
2023-04-18T23:03:14.601Z,0.00
2023-04-18T23:05:15.516Z,0.00
2023-04-18T23:07:13.629Z,0.10
2023-04-18T23:09:11.587Z,0.00
2023-04-18T23:11:11.654Z,0.10
2023-04-18T23:13:09.509Z,0.00
2023-04-18T23:15:07.981Z,0.10
2023-04-18T23:17:05.833Z,0.00
2023-04-18T23:19:04.422Z,0.00
2023-04-18T23:21:02.495Z,0.00
2023-04-18T23:23:00.598Z,0.00
2023-04-18T23:24:58.354Z,0.00
2023-04-18T23:26:57.916Z,0.00
2023-04-18T23:28:55.799Z,0.00
2023-04-18T23:30:53.816Z,0.00
2023-04-18T23:32:51.717Z,0.00
2023-04-18T23:34:49.505Z,0.00
2023-04-18T23:36:47.573Z,0.00
2023-04-18T23:38:45.411Z,0.00
2023-04-18T23:40:43.280Z,0.15
2023-04-18T23:42:42.491Z,0.00
2023-04-18T23:44:40.350Z,0.00
2023-04-18T23:46:38.338Z,0.00
2023-04-18T23:48:36.250Z,0.00
2023-04-18T23:50:34.157Z,0.00
2023-04-18T23:52:32.003Z,0.00
2023-04-18T23:54:29.875Z,0.00
2023-04-18T23:56:27.826Z,0.00
2023-04-18T23:58:27.090Z,0.00
